London, United Kingdom
Current Conditions -  °F | °C
As of 4:50 AM on Saturday 22 Nov 2014 (Local Time) from EGLC Reporting Station
Light Rain Light Rain  
Wind Chill: 52°   Ceiling: 1000
Heat Index: 52°   Visibility: 3mi
Dew Point: 50°   Wind: 3mph
Humidity: 94%   Direction: 130°SE
Pressure: 29.88"   Gusts: NA
Location:  51.5°N, 0.13°W
Report Text: EGLC 220450Z AUTO 13003KT 5000 -RA OVC010/// 11/10 Q1012
Loading
Personal Weather Stations






























Interactive Weather Map New forecast layout! Learn more

10-Day Weather Forecast

Advertisements
Track Severe Weather on mobile